sensor_id;sensor_type;location;lat;lon;timestamp;P1;durP1;ratioP1;P2;durP2;ratioP2
12367;SDS011;6248;49.812;6.620;2023-03-23T00:00:28;3.23;;;1.50;;
12367;SDS011;6248;49.812;6.620;2023-03-23T00:02:55;0.95;;;0.90;;
12367;SDS011;6248;49.812;6.620;2023-03-23T00:05:22;1.95;;;1.10;;
12367;SDS011;6248;49.812;6.620;2023-03-23T00:07:49;1.50;;;1.40;;
12367;SDS011;6248;49.812;6.620;2023-03-23T00:10:17;1.30;;;1.20;;
12367;SDS011;6248;49.812;6.620;2023-03-23T00:12:45;2.92;;;1.38;;
12367;SDS011;6248;49.812;6.620;2023-03-23T00:15:14;1.67;;;1.20;;
12367;SDS011;6248;49.812;6.620;2023-03-23T00:17:42;1.93;;;1.23;;
12367;SDS011;6248;49.812;6.620;2023-03-23T00:20:09;1.20;;;1.10;;
12367;SDS011;6248;49.812;6.620;2023-03-23T00:22:37;2.13;;;1.00;;
12367;SDS011;6248;49.812;6.620;2023-03-23T00:25:06;1.20;;;1.10;;
12367;SDS011;6248;49.812;6.620;2023-03-23T00:27:34;1.63;;;1.10;;
12367;SDS011;6248;49.812;6.620;2023-03-23T00:30:03;1.85;;;1.70;;
12367;SDS011;6248;49.812;6.620;2023-03-23T00:32:30;1.97;;;1.47;;
12367;SDS011;6248;49.812;6.620;2023-03-23T00:34:57;2.00;;;1.30;;
12367;SDS011;6248;49.812;6.620;2023-03-23T00:37:25;1.98;;;1.33;;
12367;SDS011;6248;49.812;6.620;2023-03-23T00:39:52;1.77;;;1.13;;
12367;SDS011;6248;49.812;6.620;2023-03-23T00:42:22;1.10;;;1.00;;
12367;SDS011;6248;49.812;6.620;2023-03-23T00:44:49;1.63;;;1.00;;
12367;SDS011;6248;49.812;6.620;2023-03-23T00:47:20;1.00;;;1.00;;
12367;SDS011;6248;49.812;6.620;2023-03-23T00:49:47;1.00;;;1.00;;
12367;SDS011;6248;49.812;6.620;2023-03-23T00:52:17;1.30;;;1.20;;
12367;SDS011;6248;49.812;6.620;2023-03-23T00:54:44;2.43;;;1.30;;
12367;SDS011;6248;49.812;6.620;2023-03-23T00:57:11;1.30;;;1.20;;
12367;SDS011;6248;49.812;6.620;2023-03-23T00:59:38;2.07;;;1.30;;
12367;SDS011;6248;49.812;6.620;2023-03-23T01:02:05;1.40;;;1.30;;
12367;SDS011;6248;49.812;6.620;2023-03-23T01:04:34;1.27;;;1.17;;
12367;SDS011;6248;49.812;6.620;2023-03-23T01:07:01;1.30;;;1.20;;
12367;SDS011;6248;49.812;6.620;2023-03-23T01:09:29;2.13;;;1.20;;
12367;SDS011;6248;49.812;6.620;2023-03-23T01:11:56;1.20;;;1.10;;
12367;SDS011;6248;49.812;6.620;2023-03-23T01:14:24;1.40;;;1.30;;
12367;SDS011;6248;49.812;6.620;2023-03-23T01:16:51;1.40;;;1.30;;
12367;SDS011;6248;49.812;6.620;2023-03-23T01:19:19;1.93;;;1.20;;
12367;SDS011;6248;49.812;6.620;2023-03-23T01:21:47;1.17;;;1.10;;
12367;SDS011;6248;49.812;6.620;2023-03-23T01:24:14;1.33;;;1.10;;
12367;SDS011;6248;49.812;6.620;2023-03-23T01:26:41;1.47;;;1.10;;
12367;SDS011;6248;49.812;6.620;2023-03-23T01:29:08;1.57;;;1.37;;
12367;SDS011;6248;49.812;6.620;2023-03-23T01:31:36;2.47;;;1.27;;
12367;SDS011;6248;49.812;6.620;2023-03-23T01:34:03;1.40;;;1.30;;
12367;SDS011;6248;49.812;6.620;2023-03-23T01:36:30;2.13;;;1.50;;
12367;SDS011;6248;49.812;6.620;2023-03-23T01:39:00;1.80;;;1.40;;
12367;SDS011;6248;49.812;6.620;2023-03-23T01:41:28;1.80;;;1.70;;
12367;SDS011;6248;49.812;6.620;2023-03-23T01:43:56;3.00;;;1.90;;
12367;SDS011;6248;49.812;6.620;2023-03-23T01:46:25;1.60;;;1.50;;
12367;SDS011;6248;49.812;6.620;2023-03-23T01:48:52;2.77;;;1.50;;
12367;SDS011;6248;49.812;6.620;2023-03-23T01:51:20;2.63;;;1.70;;
12367;SDS011;6248;49.812;6.620;2023-03-23T01:53:48;3.37;;;1.60;;
12367;SDS011;6248;49.812;6.620;2023-03-23T01:56:20;3.27;;;1.73;;
12367;SDS011;6248;49.812;6.620;2023-03-23T01:58:50;3.63;;;2.20;;
12367;SDS011;6248;49.812;6.620;2023-03-23T02:01:17;2.87;;;2.33;;
12367;SDS011;6248;49.812;6.620;2023-03-23T02:03:46;2.20;;;2.00;;
12367;SDS011;6248;49.812;6.620;2023-03-23T02:06:14;2.17;;;1.80;;
12367;SDS011;6248;49.812;6.620;2023-03-23T02:08:41;3.37;;;1.73;;
12367;SDS011;6248;49.812;6.620;2023-03-23T02:11:12;1.80;;;1.70;;
12367;SDS011;6248;49.812;6.620;2023-03-23T02:13:41;1.80;;;1.70;;
12367;SDS011;6248;49.812;6.620;2023-03-23T02:16:10;2.83;;;1.50;;
12367;SDS011;6248;49.812;6.620;2023-03-23T02:18:45;2.43;;;1.60;;
12367;SDS011;6248;49.812;6.620;2023-03-23T02:24:00;1.63;;;1.53;;
12367;SDS011;6248;49.812;6.620;2023-03-23T02:26:37;2.17;;;1.70;;
12367;SDS011;6248;49.812;6.620;2023-03-23T02:29:16;1.90;;;1.77;;
12367;SDS011;6248;49.812;6.620;2023-03-23T02:31:58;2.97;;;1.87;;
12367;SDS011;6248;49.812;6.620;2023-03-23T02:34:32;1.80;;;1.70;;
12367;SDS011;6248;49.812;6.620;2023-03-23T02:37:00;2.00;;;1.80;;
12367;SDS011;6248;49.812;6.620;2023-03-23T02:39:30;2.33;;;1.60;;
12367;SDS011;6248;49.812;6.620;2023-03-23T02:42:02;2.10;;;1.60;;
12367;SDS011;6248;49.812;6.620;2023-03-23T02:44:31;1.97;;;1.60;;
12367;SDS011;6248;49.812;6.620;2023-03-23T02:47:00;1.73;;;1.60;;
12367;SDS011;6248;49.812;6.620;2023-03-23T02:49:28;2.57;;;1.60;;
12367;SDS011;6248;49.812;6.620;2023-03-23T02:51:58;1.73;;;1.63;;
12367;SDS011;6248;49.812;6.620;2023-03-23T02:54:26;2.17;;;1.57;;
12367;SDS011;6248;49.812;6.620;2023-03-23T02:56:54;3.17;;;1.80;;
12367;SDS011;6248;49.812;6.620;2023-03-23T02:59:22;1.67;;;1.57;;
12367;SDS011;6248;49.812;6.620;2023-03-23T03:01:57;1.70;;;1.53;;
12367;SDS011;6248;49.812;6.620;2023-03-23T03:04:27;2.27;;;1.57;;
12367;SDS011;6248;49.812;6.620;2023-03-23T03:07:04;3.53;;;1.90;;
12367;SDS011;6248;49.812;6.620;2023-03-23T03:09:36;3.23;;;1.50;;
12367;SDS011;6248;49.812;6.620;2023-03-23T03:12:10;2.23;;;1.83;;
12367;SDS011;6248;49.812;6.620;2023-03-23T03:14:40;1.67;;;1.57;;
12367;SDS011;6248;49.812;6.620;2023-03-23T03:17:10;4.07;;;1.90;;
12367;SDS011;6248;49.812;6.620;2023-03-23T03:19:41;2.37;;;1.93;;
12367;SDS011;6248;49.812;6.620;2023-03-23T03:22:10;1.70;;;1.60;;
12367;SDS011;6248;49.812;6.620;2023-03-23T03:24:38;1.70;;;1.60;;
12367;SDS011;6248;49.812;6.620;2023-03-23T03:27:05;2.00;;;1.80;;
12367;SDS011;6248;49.812;6.620;2023-03-23T03:29:38;1.97;;;1.87;;
12367;SDS011;6248;49.812;6.620;2023-03-23T03:32:08;2.07;;;1.87;;
12367;SDS011;6248;49.812;6.620;2023-03-23T03:34:35;2.27;;;2.07;;
12367;SDS011;6248;49.812;6.620;2023-03-23T03:37:03;2.90;;;1.70;;
12367;SDS011;6248;49.812;6.620;2023-03-23T03:39:33;2.27;;;2.10;;
12367;SDS011;6248;49.812;6.620;2023-03-23T03:42:01;2.23;;;1.90;;
12367;SDS011;6248;49.812;6.620;2023-03-23T03:44:28;2.17;;;1.97;;
12367;SDS011;6248;49.812;6.620;2023-03-23T03:46:55;2.30;;;2.10;;
12367;SDS011;6248;49.812;6.620;2023-03-23T03:49:22;3.13;;;2.00;;
12367;SDS011;6248;49.812;6.620;2023-03-23T03:51:50;2.00;;;1.73;;
12367;SDS011;6248;49.812;6.620;2023-03-23T03:54:17;1.87;;;1.77;;
12367;SDS011;6248;49.812;6.620;2023-03-23T03:56:46;2.00;;;1.80;;
12367;SDS011;6248;49.812;6.620;2023-03-23T03:59:15;2.30;;;1.93;;
12367;SDS011;6248;49.812;6.620;2023-03-23T04:01:42;2.57;;;2.20;;
12367;SDS011;6248;49.812;6.620;2023-03-23T04:04:10;3.07;;;2.40;;
12367;SDS011;6248;49.812;6.620;2023-03-23T04:06:37;2.80;;;2.00;;
12367;SDS011;6248;49.812;6.620;2023-03-23T04:09:04;2.40;;;2.20;;
12367;SDS011;6248;49.812;6.620;2023-03-23T04:11:32;3.17;;;2.40;;
12367;SDS011;6248;49.812;6.620;2023-03-23T04:14:01;2.70;;;2.30;;
12367;SDS011;6248;49.812;6.620;2023-03-23T04:16:28;2.33;;;2.13;;
12367;SDS011;6248;49.812;6.620;2023-03-23T04:18:55;2.97;;;2.43;;
12367;SDS011;6248;49.812;6.620;2023-03-23T04:21:23;2.60;;;2.30;;
12367;SDS011;6248;49.812;6.620;2023-03-23T04:23:53;2.07;;;1.87;;
12367;SDS011;6248;49.812;6.620;2023-03-23T04:26:23;3.53;;;2.20;;
12367;SDS011;6248;49.812;6.620;2023-03-23T04:28:51;2.43;;;2.20;;
12367;SDS011;6248;49.812;6.620;2023-03-23T04:31:19;2.87;;;2.63;;
12367;SDS011;6248;49.812;6.620;2023-03-23T04:33:49;3.30;;;2.43;;
12367;SDS011;6248;49.812;6.620;2023-03-23T04:36:17;2.60;;;2.40;;
12367;SDS011;6248;49.812;6.620;2023-03-23T04:38:44;2.47;;;2.27;;
12367;SDS011;6248;49.812;6.620;2023-03-23T04:41:12;2.33;;;2.23;;
12367;SDS011;6248;49.812;6.620;2023-03-23T04:43:39;2.93;;;2.17;;
12367;SDS011;6248;49.812;6.620;2023-03-23T04:46:07;2.50;;;2.30;;
12367;SDS011;6248;49.812;6.620;2023-03-23T04:48:36;1.93;;;1.83;;
12367;SDS011;6248;49.812;6.620;2023-03-23T04:51:04;3.10;;;2.23;;
12367;SDS011;6248;49.812;6.620;2023-03-23T04:53:31;2.10;;;2.00;;
12367;SDS011;6248;49.812;6.620;2023-03-23T04:55:59;4.40;;;1.90;;
12367;SDS011;6248;49.812;6.620;2023-03-23T04:58:27;2.03;;;1.83;;
12367;SDS011;6248;49.812;6.620;2023-03-23T05:00:54;2.40;;;2.20;;
12367;SDS011;6248;49.812;6.620;2023-03-23T05:03:21;3.63;;;2.77;;
12367;SDS011;6248;49.812;6.620;2023-03-23T05:05:51;2.27;;;2.07;;
12367;SDS011;6248;49.812;6.620;2023-03-23T05:08:18;3.20;;;2.10;;
12367;SDS011;6248;49.812;6.620;2023-03-23T05:10:52;2.07;;;1.93;;
12367;SDS011;6248;49.812;6.620;2023-03-23T05:13:20;2.40;;;2.20;;
12367;SDS011;6248;49.812;6.620;2023-03-23T05:15:47;3.73;;;2.40;;
12367;SDS011;6248;49.812;6.620;2023-03-23T05:18:14;2.90;;;2.00;;
12367;SDS011;6248;49.812;6.620;2023-03-23T05:20:42;2.20;;;2.00;;
12367;SDS011;6248;49.812;6.620;2023-03-23T05:23:12;2.33;;;2.10;;
12367;SDS011;6248;49.812;6.620;2023-03-23T05:25:39;3.20;;;2.43;;
12367;SDS011;6248;49.812;6.620;2023-03-23T05:28:07;2.60;;;1.80;;
12367;SDS011;6248;49.812;6.620;2023-03-23T05:30:35;2.87;;;2.20;;
12367;SDS011;6248;49.812;6.620;2023-03-23T05:33:03;3.00;;;2.20;;
12367;SDS011;6248;49.812;6.620;2023-03-23T05:35:31;1.80;;;1.70;;
12367;SDS011;6248;49.812;6.620;2023-03-23T05:37:58;3.40;;;2.00;;
12367;SDS011;6248;49.812;6.620;2023-03-23T05:40:28;2.67;;;2.17;;
12367;SDS011;6248;49.812;6.620;2023-03-23T05:42:55;2.17;;;1.97;;
12367;SDS011;6248;49.812;6.620;2023-03-23T05:45:24;2.87;;;2.00;;
12367;SDS011;6248;49.812;6.620;2023-03-23T05:47:51;3.03;;;2.27;;
12367;SDS011;6248;49.812;6.620;2023-03-23T05:50:18;2.60;;;2.40;;
12367;SDS011;6248;49.812;6.620;2023-03-23T05:52:46;3.00;;;2.30;;
12367;SDS011;6248;49.812;6.620;2023-03-23T05:55:13;2.13;;;1.93;;
12367;SDS011;6248;49.812;6.620;2023-03-23T05:57:42;3.20;;;2.10;;
12367;SDS011;6248;49.812;6.620;2023-03-23T06:00:09;3.63;;;2.33;;
12367;SDS011;6248;49.812;6.620;2023-03-23T06:02:45;3.27;;;2.40;;
12367;SDS011;6248;49.812;6.620;2023-03-23T06:05:13;2.23;;;2.00;;
12367;SDS011;6248;49.812;6.620;2023-03-23T06:07:40;2.37;;;2.20;;
12367;SDS011;6248;49.812;6.620;2023-03-23T06:10:08;2.50;;;2.20;;
12367;SDS011;6248;49.812;6.620;2023-03-23T06:12:35;2.73;;;2.00;;
12367;SDS011;6248;49.812;6.620;2023-03-23T06:15:05;2.60;;;2.10;;
12367;SDS011;6248;49.812;6.620;2023-03-23T06:17:33;2.20;;;2.00;;
12367;SDS011;6248;49.812;6.620;2023-03-23T06:20:01;2.47;;;2.23;;
12367;SDS011;6248;49.812;6.620;2023-03-23T06:22:34;2.13;;;1.93;;
12367;SDS011;6248;49.812;6.620;2023-03-23T06:25:01;2.70;;;2.50;;
12367;SDS011;6248;49.812;6.620;2023-03-23T06:27:28;2.73;;;2.27;;
12367;SDS011;6248;49.812;6.620;2023-03-23T06:29:55;3.93;;;2.70;;
12367;SDS011;6248;49.812;6.620;2023-03-23T06:32:24;3.33;;;2.40;;
12367;SDS011;6248;49.812;6.620;2023-03-23T06:34:51;2.50;;;2.30;;
12367;SDS011;6248;49.812;6.620;2023-03-23T06:37:19;2.60;;;2.30;;
12367;SDS011;6248;49.812;6.620;2023-03-23T06:39:46;2.53;;;2.33;;
12367;SDS011;6248;49.812;6.620;2023-03-23T06:42:13;2.97;;;2.30;;
12367;SDS011;6248;49.812;6.620;2023-03-23T06:44:41;3.77;;;2.33;;
12367;SDS011;6248;49.812;6.620;2023-03-23T06:47:08;2.63;;;2.23;;
12367;SDS011;6248;49.812;6.620;2023-03-23T06:49:37;2.63;;;2.40;;
12367;SDS011;6248;49.812;6.620;2023-03-23T06:52:04;2.83;;;2.20;;
12367;SDS011;6248;49.812;6.620;2023-03-23T06:54:31;2.50;;;2.30;;
12367;SDS011;6248;49.812;6.620;2023-03-23T06:57:00;3.00;;;2.20;;
12367;SDS011;6248;49.812;6.620;2023-03-23T06:59:27;2.50;;;2.30;;
12367;SDS011;6248;49.812;6.620;2023-03-23T07:01:56;3.67;;;2.10;;
12367;SDS011;6248;49.812;6.620;2023-03-23T07:04:23;2.30;;;2.10;;
12367;SDS011;6248;49.812;6.620;2023-03-23T07:06:52;3.40;;;2.03;;
12367;SDS011;6248;49.812;6.620;2023-03-23T07:09:20;2.27;;;2.07;;
12367;SDS011;6248;49.812;6.620;2023-03-23T07:11:47;2.23;;;2.00;;
12367;SDS011;6248;49.812;6.620;2023-03-23T07:14:16;2.03;;;1.83;;
12367;SDS011;6248;49.812;6.620;2023-03-23T07:16:44;1.80;;;1.70;;
12367;SDS011;6248;49.812;6.620;2023-03-23T07:19:12;2.33;;;2.13;;
12367;SDS011;6248;49.812;6.620;2023-03-23T07:21:40;2.07;;;1.87;;
12367;SDS011;6248;49.812;6.620;2023-03-23T07:24:11;1.80;;;1.70;;
12367;SDS011;6248;49.812;6.620;2023-03-23T07:26:39;1.70;;;1.60;;
12367;SDS011;6248;49.812;6.620;2023-03-23T07:29:07;1.80;;;1.70;;
12367;SDS011;6248;49.812;6.620;2023-03-23T07:31:34;2.13;;;1.93;;
12367;SDS011;6248;49.812;6.620;2023-03-23T07:34:02;1.77;;;1.67;;
12367;SDS011;6248;49.812;6.620;2023-03-23T07:36:29;2.57;;;1.60;;
12367;SDS011;6248;49.812;6.620;2023-03-23T07:38:56;1.50;;;1.40;;
12367;SDS011;6248;49.812;6.620;2023-03-23T07:41:26;1.73;;;1.60;;
12367;SDS011;6248;49.812;6.620;2023-03-23T07:43:53;2.40;;;1.90;;
12367;SDS011;6248;49.812;6.620;2023-03-23T07:46:20;1.50;;;1.40;;
12367;SDS011;6248;49.812;6.620;2023-03-23T07:48:47;2.33;;;1.80;;
12367;SDS011;6248;49.812;6.620;2023-03-23T07:51:15;3.20;;;1.70;;
12367;SDS011;6248;49.812;6.620;2023-03-23T07:53:42;2.83;;;2.37;;
12367;SDS011;6248;49.812;6.620;2023-03-23T07:56:11;2.90;;;1.90;;
12367;SDS011;6248;49.812;6.620;2023-03-23T07:58:41;2.20;;;2.00;;
12367;SDS011;6248;49.812;6.620;2023-03-23T08:01:09;2.23;;;2.03;;
12367;SDS011;6248;49.812;6.620;2023-03-23T08:03:37;2.50;;;2.00;;
12367;SDS011;6248;49.812;6.620;2023-03-23T08:06:04;1.77;;;1.60;;
12367;SDS011;6248;49.812;6.620;2023-03-23T08:08:33;2.00;;;1.70;;
12367;SDS011;6248;49.812;6.620;2023-03-23T08:11:03;1.90;;;1.60;;
12367;SDS011;6248;49.812;6.620;2023-03-23T08:13:30;1.70;;;1.60;;
12367;SDS011;6248;49.812;6.620;2023-03-23T08:16:00;1.50;;;1.27;;
12367;SDS011;6248;49.812;6.620;2023-03-23T08:18:28;2.33;;;1.47;;
12367;SDS011;6248;49.812;6.620;2023-03-23T08:20:56;2.50;;;1.60;;
12367;SDS011;6248;49.812;6.620;2023-03-23T08:23:24;1.60;;;1.33;;
12367;SDS011;6248;49.812;6.620;2023-03-23T08:25:52;1.67;;;1.40;;
12367;SDS011;6248;49.812;6.620;2023-03-23T08:28:20;2.00;;;1.60;;
12367;SDS011;6248;49.812;6.620;2023-03-23T08:30:47;2.60;;;1.60;;
12367;SDS011;6248;49.812;6.620;2023-03-23T08:33:16;1.60;;;1.50;;
12367;SDS011;6248;49.812;6.620;2023-03-23T08:35:53;1.57;;;1.47;;
12367;SDS011;6248;49.812;6.620;2023-03-23T08:38:23;1.93;;;1.83;;
12367;SDS011;6248;49.812;6.620;2023-03-23T08:40:56;1.87;;;1.47;;
12367;SDS011;6248;49.812;6.620;2023-03-23T08:43:26;1.90;;;1.70;;
12367;SDS011;6248;49.812;6.620;2023-03-23T08:45:55;1.40;;;1.30;;
12367;SDS011;6248;49.812;6.620;2023-03-23T08:48:25;1.87;;;1.50;;
12367;SDS011;6248;49.812;6.620;2023-03-23T08:50:53;1.53;;;1.40;;
12367;SDS011;6248;49.812;6.620;2023-03-23T08:53:20;2.23;;;1.60;;
12367;SDS011;6248;49.812;6.620;2023-03-23T08:55:51;1.63;;;1.50;;
12367;SDS011;6248;49.812;6.620;2023-03-23T08:58:19;1.90;;;1.80;;
12367;SDS011;6248;49.812;6.620;2023-03-23T09:00:49;1.80;;;1.50;;
12367;SDS011;6248;49.812;6.620;2023-03-23T09:03:19;1.97;;;1.50;;
12367;SDS011;6248;49.812;6.620;2023-03-23T09:05:49;2.83;;;1.70;;
12367;SDS011;6248;49.812;6.620;2023-03-23T09:08:19;4.53;;;1.60;;
12367;SDS011;6248;49.812;6.620;2023-03-23T09:10:46;1.97;;;1.20;;
12367;SDS011;6248;49.812;6.620;2023-03-23T09:13:17;3.37;;;1.70;;
12367;SDS011;6248;49.812;6.620;2023-03-23T09:15:45;1.73;;;1.40;;
12367;SDS011;6248;49.812;6.620;2023-03-23T09:18:15;4.70;;;1.70;;
12367;SDS011;6248;49.812;6.620;2023-03-23T09:20:43;2.20;;;1.40;;
12367;SDS011;6248;49.812;6.620;2023-03-23T09:23:12;1.40;;;1.30;;
12367;SDS011;6248;49.812;6.620;2023-03-23T09:25:42;1.93;;;1.40;;
12367;SDS011;6248;49.812;6.620;2023-03-23T09:28:11;1.43;;;1.33;;
12367;SDS011;6248;49.812;6.620;2023-03-23T09:30:44;1.33;;;1.27;;
12367;SDS011;6248;49.812;6.620;2023-03-23T09:33:13;6.77;;;5.33;;
12367;SDS011;6248;49.812;6.620;2023-03-23T09:35:52;2.17;;;1.40;;
12367;SDS011;6248;49.812;6.620;2023-03-23T09:38:42;2.53;;;1.50;;
12367;SDS011;6248;49.812;6.620;2023-03-23T09:41:14;1.75;;;1.50;;
12367;SDS011;6248;49.812;6.620;2023-03-23T09:43:56;1.60;;;1.50;;
12367;SDS011;6248;49.812;6.620;2023-03-23T09:46:42;1.50;;;1.40;;
12367;SDS011;6248;49.812;6.620;2023-03-23T09:49:16;1.70;;;1.30;;
12367;SDS011;6248;49.812;6.620;2023-03-23T09:51:51;1.75;;;1.23;;
12367;SDS011;6248;49.812;6.620;2023-03-23T09:54:26;1.95;;;1.38;;
12367;SDS011;6248;49.812;6.620;2023-03-23T09:56:55;1.57;;;1.40;;
12367;SDS011;6248;49.812;6.620;2023-03-23T09:59:26;1.30;;;1.20;;
12367;SDS011;6248;49.812;6.620;2023-03-23T10:02:11;1.15;;;1.08;;
12367;SDS011;6248;49.812;6.620;2023-03-23T10:04:49;1.35;;;1.17;;
12367;SDS011;6248;49.812;6.620;2023-03-23T10:07:20;1.30;;;1.20;;
12367;SDS011;6248;49.812;6.620;2023-03-23T10:09:59;2.22;;;1.30;;
12367;SDS011;6248;49.812;6.620;2023-03-23T10:12:40;2.67;;;1.30;;
12367;SDS011;6248;49.812;6.620;2023-03-23T10:15:14;1.30;;;1.20;;
12367;SDS011;6248;49.812;6.620;2023-03-23T10:17:47;1.20;;;1.10;;
12367;SDS011;6248;49.812;6.620;2023-03-23T10:20:36;1.15;;;1.05;;
12367;SDS011;6248;49.812;6.620;2023-03-23T10:23:59;1.10;;;1.00;;
12367;SDS011;6248;49.812;6.620;2023-03-23T10:26:44;1.05;;;1.05;;
12367;SDS011;6248;49.812;6.620;2023-03-23T10:29:17;1.65;;;0.70;;
12367;SDS011;6248;49.812;6.620;2023-03-23T10:31:46;1.70;;;0.80;;
12367;SDS011;6248;49.812;6.620;2023-03-23T10:34:28;1.00;;;0.90;;
12367;SDS011;6248;49.812;6.620;2023-03-23T10:37:09;0.90;;;0.90;;
12367;SDS011;6248;49.812;6.620;2023-03-23T10:39:50;0.95;;;0.95;;
12367;SDS011;6248;49.812;6.620;2023-03-23T10:42:39;1.10;;;1.00;;
12367;SDS011;6248;49.812;6.620;2023-03-23T10:45:15;1.33;;;1.08;;
12367;SDS011;6248;49.812;6.620;2023-03-23T10:47:48;1.35;;;0.80;;
12367;SDS011;6248;49.812;6.620;2023-03-23T10:50:29;1.35;;;1.10;;
12367;SDS011;6248;49.812;6.620;2023-03-23T10:53:01;1.10;;;1.00;;
12367;SDS011;6248;49.812;6.620;2023-03-23T10:55:36;1.00;;;0.90;;
12367;SDS011;6248;49.812;6.620;2023-03-23T10:58:06;1.20;;;1.10;;
12367;SDS011;6248;49.812;6.620;2023-03-23T11:00:39;1.77;;;1.10;;
12367;SDS011;6248;49.812;6.620;2023-03-23T11:03:22;0.90;;;0.90;;
12367;SDS011;6248;49.812;6.620;2023-03-23T11:05:59;1.20;;;1.10;;
12367;SDS011;6248;49.812;6.620;2023-03-23T11:08:32;0.93;;;0.90;;
12367;SDS011;6248;49.812;6.620;2023-03-23T11:11:10;1.73;;;1.60;;
12367;SDS011;6248;49.812;6.620;2023-03-23T11:13:43;1.38;;;1.27;;
12367;SDS011;6248;49.812;6.620;2023-03-23T11:16:24;1.58;;;1.10;;
12367;SDS011;6248;49.812;6.620;2023-03-23T11:18:54;1.20;;;1.10;;
12367;SDS011;6248;49.812;6.620;2023-03-23T11:21:23;1.30;;;1.20;;
12367;SDS011;6248;49.812;6.620;2023-03-23T11:23:53;1.23;;;1.13;;
12367;SDS011;6248;49.812;6.620;2023-03-23T11:26:24;1.23;;;1.10;;
12367;SDS011;6248;49.812;6.620;2023-03-23T11:28:55;1.75;;;1.30;;
12367;SDS011;6248;49.812;6.620;2023-03-23T11:31:26;1.95;;;1.23;;
12367;SDS011;6248;49.812;6.620;2023-03-23T11:33:57;2.10;;;1.20;;
12367;SDS011;6248;49.812;6.620;2023-03-23T11:36:30;2.08;;;1.15;;
12367;SDS011;6248;49.812;6.620;2023-03-23T11:38:58;1.25;;;1.17;;
12367;SDS011;6248;49.812;6.620;2023-03-23T11:41:32;1.88;;;1.40;;
12367;SDS011;6248;49.812;6.620;2023-03-23T11:44:07;1.98;;;1.30;;
12367;SDS011;6248;49.812;6.620;2023-03-23T11:46:48;1.98;;;1.08;;
12367;SDS011;6248;49.812;6.620;2023-03-23T11:49:20;1.33;;;1.20;;
12367;SDS011;6248;49.812;6.620;2023-03-23T11:51:50;2.35;;;1.25;;
12367;SDS011;6248;49.812;6.620;2023-03-23T11:54:24;2.35;;;1.30;;
12367;SDS011;6248;49.812;6.620;2023-03-23T11:56:54;1.50;;;1.40;;
12367;SDS011;6248;49.812;6.620;2023-03-23T11:59:29;1.25;;;1.15;;
12367;SDS011;6248;49.812;6.620;2023-03-23T12:02:03;1.60;;;1.30;;
12367;SDS011;6248;49.812;6.620;2023-03-23T12:04:52;1.85;;;1.20;;
12367;SDS011;6248;49.812;6.620;2023-03-23T12:07:35;1.65;;;1.17;;
12367;SDS011;6248;49.812;6.620;2023-03-23T12:10:10;1.75;;;1.20;;
12367;SDS011;6248;49.812;6.620;2023-03-23T12:12:40;1.90;;;1.20;;
12367;SDS011;6248;49.812;6.620;2023-03-23T12:15:17;1.17;;;1.05;;
12367;SDS011;6248;49.812;6.620;2023-03-23T12:17:48;1.65;;;1.30;;
12367;SDS011;6248;49.812;6.620;2023-03-23T12:20:21;1.65;;;1.17;;
12367;SDS011;6248;49.812;6.620;2023-03-23T12:22:56;1.48;;;1.20;;
12367;SDS011;6248;49.812;6.620;2023-03-23T12:28:18;0.98;;;0.98;;
12367;SDS011;6248;49.812;6.620;2023-03-23T12:30:51;1.60;;;1.33;;
12367;SDS011;6248;49.812;6.620;2023-03-23T12:33:27;1.05;;;0.95;;
12367;SDS011;6248;49.812;6.620;2023-03-23T12:36:02;1.27;;;1.00;;
12367;SDS011;6248;49.812;6.620;2023-03-23T12:38:35;1.40;;;1.30;;
12367;SDS011;6248;49.812;6.620;2023-03-23T12:41:15;2.80;;;1.42;;
12367;SDS011;6248;49.812;6.620;2023-03-23T12:43:51;2.05;;;1.30;;
12367;SDS011;6248;49.812;6.620;2023-03-23T12:46:31;1.95;;;1.55;;
12367;SDS011;6248;49.812;6.620;2023-03-23T12:49:04;1.90;;;1.38;;
12367;SDS011;6248;49.812;6.620;2023-03-23T12:51:34;1.80;;;1.50;;
12367;SDS011;6248;49.812;6.620;2023-03-23T12:54:04;1.70;;;1.13;;
12367;SDS011;6248;49.812;6.620;2023-03-23T12:56:33;2.10;;;1.30;;
12367;SDS011;6248;49.812;6.620;2023-03-23T12:59:10;1.40;;;1.30;;
12367;SDS011;6248;49.812;6.620;2023-03-23T13:01:46;2.53;;;1.10;;
12367;SDS011;6248;49.812;6.620;2023-03-23T13:04:15;2.45;;;1.40;;
12367;SDS011;6248;49.812;6.620;2023-03-23T13:06:44;2.45;;;1.40;;
12367;SDS011;6248;49.812;6.620;2023-03-23T13:09:14;1.77;;;1.50;;
12367;SDS011;6248;49.812;6.620;2023-03-23T13:11:43;1.55;;;1.33;;
12367;SDS011;6248;49.812;6.620;2023-03-23T13:14:15;1.65;;;1.30;;
12367;SDS011;6248;49.812;6.620;2023-03-23T13:16:48;2.47;;;1.48;;
12367;SDS011;6248;49.812;6.620;2023-03-23T13:19:18;1.55;;;1.45;;
12367;SDS011;6248;49.812;6.620;2023-03-23T13:21:48;3.38;;;1.40;;
12367;SDS011;6248;49.812;6.620;2023-03-23T13:24:17;3.00;;;1.70;;
12367;SDS011;6248;49.812;6.620;2023-03-23T13:26:46;2.00;;;1.35;;
12367;SDS011;6248;49.812;6.620;2023-03-23T13:29:17;2.60;;;1.30;;
12367;SDS011;6248;49.812;6.620;2023-03-23T13:31:48;3.53;;;1.45;;
12367;SDS011;6248;49.812;6.620;2023-03-23T13:34:16;2.08;;;1.70;;
12367;SDS011;6248;49.812;6.620;2023-03-23T13:36:52;2.85;;;1.40;;
12367;SDS011;6248;49.812;6.620;2023-03-23T13:39:21;3.10;;;1.35;;
12367;SDS011;6248;49.812;6.620;2023-03-23T13:41:59;2.33;;;1.60;;
12367;SDS011;6248;49.812;6.620;2023-03-23T13:44:27;1.83;;;1.40;;
12367;SDS011;6248;49.812;6.620;2023-03-23T13:47:07;2.50;;;1.55;;
12367;SDS011;6248;49.812;6.620;2023-03-23T13:49:44;2.15;;;1.52;;
12367;SDS011;6248;49.812;6.620;2023-03-23T13:52:17;4.10;;;1.50;;
12367;SDS011;6248;49.812;6.620;2023-03-23T13:54:45;2.92;;;1.55;;
12367;SDS011;6248;49.812;6.620;2023-03-23T14:00:10;3.42;;;1.85;;
12367;SDS011;6248;49.812;6.620;2023-03-23T14:02:40;2.65;;;1.85;;
12367;SDS011;6248;49.812;6.620;2023-03-23T14:05:11;2.67;;;1.67;;
12367;SDS011;6248;49.812;6.620;2023-03-23T14:07:54;3.33;;;1.90;;
12367;SDS011;6248;49.812;6.620;2023-03-23T14:10:24;1.88;;;1.50;;
12367;SDS011;6248;49.812;6.620;2023-03-23T14:12:52;4.35;;;1.90;;
12367;SDS011;6248;49.812;6.620;2023-03-23T14:15:22;3.08;;;1.70;;
12367;SDS011;6248;49.812;6.620;2023-03-23T14:17:56;2.92;;;1.70;;
12367;SDS011;6248;49.812;6.620;2023-03-23T14:20:25;2.15;;;1.50;;
12367;SDS011;6248;49.812;6.620;2023-03-23T14:22:53;2.00;;;1.60;;
12367;SDS011;6248;49.812;6.620;2023-03-23T14:25:21;3.35;;;1.48;;
12367;SDS011;6248;49.812;6.620;2023-03-23T14:27:50;2.03;;;1.20;;
12367;SDS011;6248;49.812;6.620;2023-03-23T14:30:18;2.67;;;1.73;;
12367;SDS011;6248;49.812;6.620;2023-03-23T14:32:46;2.80;;;1.60;;
12367;SDS011;6248;49.812;6.620;2023-03-23T14:35:17;5.22;;;1.75;;
12367;SDS011;6248;49.812;6.620;2023-03-23T14:37:46;2.40;;;1.52;;
12367;SDS011;6248;49.812;6.620;2023-03-23T14:40:15;7.15;;;1.50;;
12367;SDS011;6248;49.812;6.620;2023-03-23T14:42:43;2.25;;;1.25;;
12367;SDS011;6248;49.812;6.620;2023-03-23T14:45:11;1.73;;;1.52;;
12367;SDS011;6248;49.812;6.620;2023-03-23T14:47:40;2.95;;;1.40;;
12367;SDS011;6248;49.812;6.620;2023-03-23T14:50:21;1.67;;;1.23;;
12367;SDS011;6248;49.812;6.620;2023-03-23T14:52:49;3.00;;;1.52;;
12367;SDS011;6248;49.812;6.620;2023-03-23T14:55:17;3.05;;;1.35;;
12367;SDS011;6248;49.812;6.620;2023-03-23T14:57:45;2.42;;;1.58;;
12367;SDS011;6248;49.812;6.620;2023-03-23T15:00:14;2.60;;;1.58;;
12367;SDS011;6248;49.812;6.620;2023-03-23T15:02:42;4.15;;;1.55;;
12367;SDS011;6248;49.812;6.620;2023-03-23T15:05:11;2.35;;;1.58;;
12367;SDS011;6248;49.812;6.620;2023-03-23T15:07:42;2.05;;;1.60;;
12367;SDS011;6248;49.812;6.620;2023-03-23T15:10:13;2.67;;;1.30;;
12367;SDS011;6248;49.812;6.620;2023-03-23T15:12:42;2.63;;;1.73;;
12367;SDS011;6248;49.812;6.620;2023-03-23T15:15:14;2.58;;;1.75;;
12367;SDS011;6248;49.812;6.620;2023-03-23T15:17:44;2.35;;;1.45;;
12367;SDS011;6248;49.812;6.620;2023-03-23T15:20:19;4.00;;;1.80;;
12367;SDS011;6248;49.812;6.620;2023-03-23T15:22:48;4.93;;;1.80;;
12367;SDS011;6248;49.812;6.620;2023-03-23T15:25:18;2.55;;;1.60;;
12367;SDS011;6248;49.812;6.620;2023-03-23T15:27:49;2.65;;;1.40;;